sensor_id;sensor_type;location;lat;lon;timestamp;P1;durP1;ratioP1;P2;durP2;ratioP2
62990;SDS011;49084;48.204;16.202;2023-01-15T00:01:48;11.30;;;6.00;;
62990;SDS011;49084;48.204;16.202;2023-01-15T00:04:14;12.77;;;6.50;;
62990;SDS011;49084;48.204;16.202;2023-01-15T00:06:40;13.68;;;6.28;;
62990;SDS011;49084;48.204;16.202;2023-01-15T00:09:07;13.20;;;6.55;;
62990;SDS011;49084;48.204;16.202;2023-01-15T00:11:37;12.00;;;6.60;;
62990;SDS011;49084;48.204;16.202;2023-01-15T00:14:02;12.27;;;6.13;;
62990;SDS011;49084;48.204;16.202;2023-01-15T00:16:28;10.80;;;6.13;;
62990;SDS011;49084;48.204;16.202;2023-01-15T00:18:57;14.38;;;6.25;;
62990;SDS011;49084;48.204;16.202;2023-01-15T00:21:25;11.25;;;6.55;;
62990;SDS011;49084;48.204;16.202;2023-01-15T00:23:52;12.98;;;6.18;;
62990;SDS011;49084;48.204;16.202;2023-01-15T00:26:37;14.27;;;6.97;;
62990;SDS011;49084;48.204;16.202;2023-01-15T00:29:22;11.35;;;6.22;;
62990;SDS011;49084;48.204;16.202;2023-01-15T00:31:58;12.48;;;6.13;;
62990;SDS011;49084;48.204;16.202;2023-01-15T00:34:29;12.35;;;6.50;;
62990;SDS011;49084;48.204;16.202;2023-01-15T00:36:56;12.35;;;6.53;;
62990;SDS011;49084;48.204;16.202;2023-01-15T00:39:22;9.18;;;5.30;;
62990;SDS011;49084;48.204;16.202;2023-01-15T00:41:48;11.55;;;5.00;;
62990;SDS011;49084;48.204;16.202;2023-01-15T00:44:15;9.13;;;5.22;;
62990;SDS011;49084;48.204;16.202;2023-01-15T00:46:41;9.48;;;5.18;;
62990;SDS011;49084;48.204;16.202;2023-01-15T00:49:07;9.40;;;5.30;;
62990;SDS011;49084;48.204;16.202;2023-01-15T00:51:33;9.60;;;5.28;;
62990;SDS011;49084;48.204;16.202;2023-01-15T00:53:59;9.15;;;4.90;;
62990;SDS011;49084;48.204;16.202;2023-01-15T00:56:24;9.80;;;5.65;;
62990;SDS011;49084;48.204;16.202;2023-01-15T00:58:50;8.80;;;5.03;;
62990;SDS011;49084;48.204;16.202;2023-01-15T01:01:16;6.97;;;4.22;;
62990;SDS011;49084;48.204;16.202;2023-01-15T01:03:42;10.80;;;4.60;;
62990;SDS011;49084;48.204;16.202;2023-01-15T01:06:12;8.38;;;4.63;;
62990;SDS011;49084;48.204;16.202;2023-01-15T01:08:39;8.93;;;4.60;;
62990;SDS011;49084;48.204;16.202;2023-01-15T01:11:08;7.28;;;4.43;;
62990;SDS011;49084;48.204;16.202;2023-01-15T01:13:35;8.75;;;4.80;;
62990;SDS011;49084;48.204;16.202;2023-01-15T01:16:01;15.00;;;4.55;;
62990;SDS011;49084;48.204;16.202;2023-01-15T01:18:28;9.95;;;4.50;;
62990;SDS011;49084;48.204;16.202;2023-01-15T01:20:53;10.77;;;4.43;;
62990;SDS011;49084;48.204;16.202;2023-01-15T01:23:21;9.73;;;4.55;;
62990;SDS011;49084;48.204;16.202;2023-01-15T01:25:47;7.72;;;4.35;;
62990;SDS011;49084;48.204;16.202;2023-01-15T01:28:13;9.50;;;4.80;;
62990;SDS011;49084;48.204;16.202;2023-01-15T01:30:38;6.93;;;4.15;;
62990;SDS011;49084;48.204;16.202;2023-01-15T01:33:05;6.50;;;4.38;;
62990;SDS011;49084;48.204;16.202;2023-01-15T01:35:31;7.85;;;5.28;;
62990;SDS011;49084;48.204;16.202;2023-01-15T01:37:57;8.93;;;4.78;;
62990;SDS011;49084;48.204;16.202;2023-01-15T01:40:22;8.23;;;4.50;;
62990;SDS011;49084;48.204;16.202;2023-01-15T01:42:48;6.70;;;4.18;;
62990;SDS011;49084;48.204;16.202;2023-01-15T01:45:32;7.85;;;4.43;;
62990;SDS011;49084;48.204;16.202;2023-01-15T01:48:04;5.75;;;4.03;;
62990;SDS011;49084;48.204;16.202;2023-01-15T01:50:31;9.70;;;4.93;;
62990;SDS011;49084;48.204;16.202;2023-01-15T01:53:00;9.05;;;4.63;;
62990;SDS011;49084;48.204;16.202;2023-01-15T01:55:29;7.32;;;4.75;;
62990;SDS011;49084;48.204;16.202;2023-01-15T01:57:57;8.07;;;4.80;;
62990;SDS011;49084;48.204;16.202;2023-01-15T02:00:26;6.93;;;4.95;;
62990;SDS011;49084;48.204;16.202;2023-01-15T02:02:53;10.60;;;4.55;;
62990;SDS011;49084;48.204;16.202;2023-01-15T02:05:30;6.18;;;4.30;;
62990;SDS011;49084;48.204;16.202;2023-01-15T02:07:59;9.15;;;4.38;;
62990;SDS011;49084;48.204;16.202;2023-01-15T02:10:25;6.50;;;4.10;;
62990;SDS011;49084;48.204;16.202;2023-01-15T02:15:47;6.80;;;4.20;;
62990;SDS011;49084;48.204;16.202;2023-01-15T02:18:27;6.10;;;4.25;;
62990;SDS011;49084;48.204;16.202;2023-01-15T02:20:58;6.28;;;4.20;;
62990;SDS011;49084;48.204;16.202;2023-01-15T02:29:17;7.07;;;4.53;;
62990;SDS011;49084;48.204;16.202;2023-01-15T02:31:50;8.07;;;4.43;;
62990;SDS011;49084;48.204;16.202;2023-01-15T02:34:19;7.60;;;4.30;;
62990;SDS011;49084;48.204;16.202;2023-01-15T02:36:53;8.65;;;4.50;;
62990;SDS011;49084;48.204;16.202;2023-01-15T02:39:26;8.77;;;4.75;;
62990;SDS011;49084;48.204;16.202;2023-01-15T02:41:54;9.10;;;4.40;;
62990;SDS011;49084;48.204;16.202;2023-01-15T02:44:23;9.20;;;4.70;;
62990;SDS011;49084;48.204;16.202;2023-01-15T02:46:50;8.27;;;4.78;;
62990;SDS011;49084;48.204;16.202;2023-01-15T02:49:18;8.57;;;4.53;;
62990;SDS011;49084;48.204;16.202;2023-01-15T02:52:08;10.07;;;5.38;;
62990;SDS011;49084;48.204;16.202;2023-01-15T02:54:41;10.93;;;5.40;;
62990;SDS011;49084;48.204;16.202;2023-01-15T02:57:09;9.95;;;5.20;;
62990;SDS011;49084;48.204;16.202;2023-01-15T02:59:38;9.93;;;5.68;;
62990;SDS011;49084;48.204;16.202;2023-01-15T03:02:10;8.65;;;5.05;;
62990;SDS011;49084;48.204;16.202;2023-01-15T03:04:42;9.68;;;5.05;;
62990;SDS011;49084;48.204;16.202;2023-01-15T03:10:01;8.88;;;4.45;;
62990;SDS011;49084;48.204;16.202;2023-01-15T03:12:31;8.18;;;5.10;;
62990;SDS011;49084;48.204;16.202;2023-01-15T03:15:26;9.07;;;4.88;;
62990;SDS011;49084;48.204;16.202;2023-01-15T03:18:30;10.48;;;4.53;;
62990;SDS011;49084;48.204;16.202;2023-01-15T03:21:02;11.07;;;5.30;;
62990;SDS011;49084;48.204;16.202;2023-01-15T03:23:31;8.55;;;5.07;;
62990;SDS011;49084;48.204;16.202;2023-01-15T03:26:01;6.65;;;4.82;;
62990;SDS011;49084;48.204;16.202;2023-01-15T03:28:28;8.13;;;4.47;;
62990;SDS011;49084;48.204;16.202;2023-01-15T03:30:58;7.63;;;4.18;;
62990;SDS011;49084;48.204;16.202;2023-01-15T03:33:23;7.93;;;4.70;;
62990;SDS011;49084;48.204;16.202;2023-01-15T03:35:55;8.57;;;4.40;;
62990;SDS011;49084;48.204;16.202;2023-01-15T03:38:41;8.07;;;4.47;;
62990;SDS011;49084;48.204;16.202;2023-01-15T03:41:14;7.35;;;4.38;;
62990;SDS011;49084;48.204;16.202;2023-01-15T03:51:31;7.95;;;3.85;;
62990;SDS011;49084;48.204;16.202;2023-01-15T03:54:26;9.38;;;4.18;;
62990;SDS011;49084;48.204;16.202;2023-01-15T03:57:02;6.95;;;4.38;;
62990;SDS011;49084;48.204;16.202;2023-01-15T03:59:36;8.70;;;4.45;;
62990;SDS011;49084;48.204;16.202;2023-01-15T04:02:05;8.15;;;3.97;;
62990;SDS011;49084;48.204;16.202;2023-01-15T04:04:35;6.82;;;4.30;;
62990;SDS011;49084;48.204;16.202;2023-01-15T04:07:02;6.93;;;4.53;;
62990;SDS011;49084;48.204;16.202;2023-01-15T04:09:28;8.02;;;4.45;;
62990;SDS011;49084;48.204;16.202;2023-01-15T04:11:58;9.73;;;4.30;;
62990;SDS011;49084;48.204;16.202;2023-01-15T04:14:25;7.97;;;4.53;;
62990;SDS011;49084;48.204;16.202;2023-01-15T04:16:53;12.00;;;5.30;;
62990;SDS011;49084;48.204;16.202;2023-01-15T04:19:38;8.70;;;4.88;;
62990;SDS011;49084;48.204;16.202;2023-01-15T04:22:03;10.32;;;4.75;;
62990;SDS011;49084;48.204;16.202;2023-01-15T04:24:29;11.20;;;4.88;;
62990;SDS011;49084;48.204;16.202;2023-01-15T04:26:55;7.22;;;4.63;;
62990;SDS011;49084;48.204;16.202;2023-01-15T04:29:20;9.68;;;4.70;;
62990;SDS011;49084;48.204;16.202;2023-01-15T04:31:46;10.35;;;5.15;;
62990;SDS011;49084;48.204;16.202;2023-01-15T04:34:12;7.07;;;4.10;;
62990;SDS011;49084;48.204;16.202;2023-01-15T04:36:37;7.53;;;4.60;;
62990;SDS011;49084;48.204;16.202;2023-01-15T04:39:03;8.93;;;4.63;;
62990;SDS011;49084;48.204;16.202;2023-01-15T04:41:30;8.25;;;4.63;;
62990;SDS011;49084;48.204;16.202;2023-01-15T04:44:14;8.02;;;4.93;;
62990;SDS011;49084;48.204;16.202;2023-01-15T04:46:41;8.65;;;4.35;;
62990;SDS011;49084;48.204;16.202;2023-01-15T04:49:13;6.25;;;4.15;;
62990;SDS011;49084;48.204;16.202;2023-01-15T04:51:40;5.63;;;3.80;;
62990;SDS011;49084;48.204;16.202;2023-01-15T04:54:07;6.38;;;4.18;;
62990;SDS011;49084;48.204;16.202;2023-01-15T04:56:41;7.50;;;4.47;;
62990;SDS011;49084;48.204;16.202;2023-01-15T04:59:09;8.15;;;4.30;;
62990;SDS011;49084;48.204;16.202;2023-01-15T05:01:34;6.57;;;4.05;;
62990;SDS011;49084;48.204;16.202;2023-01-15T05:04:01;7.60;;;4.25;;
62990;SDS011;49084;48.204;16.202;2023-01-15T05:06:27;7.18;;;4.20;;
62990;SDS011;49084;48.204;16.202;2023-01-15T05:08:55;6.38;;;3.97;;
62990;SDS011;49084;48.204;16.202;2023-01-15T05:11:22;8.35;;;4.32;;
62990;SDS011;49084;48.204;16.202;2023-01-15T05:13:47;8.25;;;4.70;;
62990;SDS011;49084;48.204;16.202;2023-01-15T05:16:14;6.80;;;4.72;;
62990;SDS011;49084;48.204;16.202;2023-01-15T05:18:42;8.77;;;4.00;;
62990;SDS011;49084;48.204;16.202;2023-01-15T05:21:16;7.68;;;4.55;;
62990;SDS011;49084;48.204;16.202;2023-01-15T05:23:44;7.10;;;4.30;;
62990;SDS011;49084;48.204;16.202;2023-01-15T05:26:10;8.90;;;4.57;;
62990;SDS011;49084;48.204;16.202;2023-01-15T05:28:36;6.03;;;3.90;;
62990;SDS011;49084;48.204;16.202;2023-01-15T05:31:08;10.02;;;3.92;;
62990;SDS011;49084;48.204;16.202;2023-01-15T05:33:39;8.27;;;4.65;;
62990;SDS011;49084;48.204;16.202;2023-01-15T05:36:06;7.57;;;4.10;;
62990;SDS011;49084;48.204;16.202;2023-01-15T05:38:33;6.07;;;3.97;;
62990;SDS011;49084;48.204;16.202;2023-01-15T05:41:02;6.93;;;3.63;;
62990;SDS011;49084;48.204;16.202;2023-01-15T05:43:58;6.32;;;3.60;;
62990;SDS011;49084;48.204;16.202;2023-01-15T05:46:26;6.32;;;3.65;;
62990;SDS011;49084;48.204;16.202;2023-01-15T05:48:52;6.35;;;3.50;;
62990;SDS011;49084;48.204;16.202;2023-01-15T05:51:18;5.10;;;3.17;;
62990;SDS011;49084;48.204;16.202;2023-01-15T05:53:44;5.85;;;3.42;;
62990;SDS011;49084;48.204;16.202;2023-01-15T05:56:10;8.02;;;3.88;;
62990;SDS011;49084;48.204;16.202;2023-01-15T05:58:36;4.88;;;3.13;;
62990;SDS011;49084;48.204;16.202;2023-01-15T06:01:08;6.82;;;2.95;;
62990;SDS011;49084;48.204;16.202;2023-01-15T06:03:35;6.38;;;3.25;;
62990;SDS011;49084;48.204;16.202;2023-01-15T06:06:01;6.28;;;3.50;;
62990;SDS011;49084;48.204;16.202;2023-01-15T06:08:27;7.13;;;4.05;;
62990;SDS011;49084;48.204;16.202;2023-01-15T06:10:53;7.15;;;3.80;;
62990;SDS011;49084;48.204;16.202;2023-01-15T06:13:19;4.13;;;3.22;;
62990;SDS011;49084;48.204;16.202;2023-01-15T06:15:45;6.43;;;3.00;;
62990;SDS011;49084;48.204;16.202;2023-01-15T06:18:10;7.90;;;3.40;;
62990;SDS011;49084;48.204;16.202;2023-01-15T06:20:37;5.35;;;3.10;;
62990;SDS011;49084;48.204;16.202;2023-01-15T06:23:03;6.90;;;3.75;;
62990;SDS011;49084;48.204;16.202;2023-01-15T06:25:31;6.47;;;3.58;;
62990;SDS011;49084;48.204;16.202;2023-01-15T06:27:59;6.47;;;3.40;;
62990;SDS011;49084;48.204;16.202;2023-01-15T06:30:24;9.35;;;3.65;;
62990;SDS011;49084;48.204;16.202;2023-01-15T06:32:50;7.15;;;3.58;;
62990;SDS011;49084;48.204;16.202;2023-01-15T06:35:16;7.57;;;3.30;;
62990;SDS011;49084;48.204;16.202;2023-01-15T06:37:41;4.95;;;3.40;;
62990;SDS011;49084;48.204;16.202;2023-01-15T06:40:07;5.38;;;3.47;;
62990;SDS011;49084;48.204;16.202;2023-01-15T06:42:34;7.82;;;3.53;;
62990;SDS011;49084;48.204;16.202;2023-01-15T06:45:18;6.00;;;3.60;;
62990;SDS011;49084;48.204;16.202;2023-01-15T06:48:02;7.43;;;3.22;;
62990;SDS011;49084;48.204;16.202;2023-01-15T06:50:28;5.78;;;3.60;;
62990;SDS011;49084;48.204;16.202;2023-01-15T06:52:53;4.53;;;3.05;;
62990;SDS011;49084;48.204;16.202;2023-01-15T06:55:19;5.18;;;3.53;;
62990;SDS011;49084;48.204;16.202;2023-01-15T06:57:47;7.65;;;4.03;;
62990;SDS011;49084;48.204;16.202;2023-01-15T07:00:13;8.02;;;3.78;;
62990;SDS011;49084;48.204;16.202;2023-01-15T07:02:39;6.15;;;3.70;;
62990;SDS011;49084;48.204;16.202;2023-01-15T07:05:05;5.60;;;3.85;;
62990;SDS011;49084;48.204;16.202;2023-01-15T07:07:32;6.90;;;4.22;;
62990;SDS011;49084;48.204;16.202;2023-01-15T07:09:58;6.57;;;3.90;;
62990;SDS011;49084;48.204;16.202;2023-01-15T07:12:23;8.15;;;3.65;;
62990;SDS011;49084;48.204;16.202;2023-01-15T07:14:49;7.32;;;3.53;;
62990;SDS011;49084;48.204;16.202;2023-01-15T07:17:15;7.93;;;3.97;;
62990;SDS011;49084;48.204;16.202;2023-01-15T07:19:41;8.88;;;4.78;;
62990;SDS011;49084;48.204;16.202;2023-01-15T07:22:07;6.55;;;3.83;;
62990;SDS011;49084;48.204;16.202;2023-01-15T07:24:34;5.63;;;3.67;;
62990;SDS011;49084;48.204;16.202;2023-01-15T07:27:00;7.45;;;3.47;;
62990;SDS011;49084;48.204;16.202;2023-01-15T07:29:26;7.43;;;4.32;;
62990;SDS011;49084;48.204;16.202;2023-01-15T07:31:52;5.63;;;3.47;;
62990;SDS011;49084;48.204;16.202;2023-01-15T07:34:18;6.82;;;3.80;;
62990;SDS011;49084;48.204;16.202;2023-01-15T07:36:43;6.10;;;4.18;;
62990;SDS011;49084;48.204;16.202;2023-01-15T07:39:09;8.30;;;4.25;;
62990;SDS011;49084;48.204;16.202;2023-01-15T07:41:35;6.95;;;3.75;;
62990;SDS011;49084;48.204;16.202;2023-01-15T07:44:20;7.38;;;3.90;;
62990;SDS011;49084;48.204;16.202;2023-01-15T07:47:16;7.88;;;3.65;;
62990;SDS011;49084;48.204;16.202;2023-01-15T07:50:06;9.15;;;3.72;;
62990;SDS011;49084;48.204;16.202;2023-01-15T07:52:46;8.18;;;3.63;;
62990;SDS011;49084;48.204;16.202;2023-01-15T07:55:12;7.05;;;4.22;;
62990;SDS011;49084;48.204;16.202;2023-01-15T07:57:38;6.72;;;3.67;;
62990;SDS011;49084;48.204;16.202;2023-01-15T08:02:34;6.05;;;4.85;;
62990;SDS011;49084;48.204;16.202;2023-01-15T08:05:00;7.25;;;4.53;;
62990;SDS011;49084;48.204;16.202;2023-01-15T08:07:25;9.20;;;4.32;;
62990;SDS011;49084;48.204;16.202;2023-01-15T08:09:51;7.68;;;3.80;;
62990;SDS011;49084;48.204;16.202;2023-01-15T08:12:17;8.93;;;4.10;;
62990;SDS011;49084;48.204;16.202;2023-01-15T08:15:01;8.00;;;4.00;;
62990;SDS011;49084;48.204;16.202;2023-01-15T08:20:12;9.13;;;3.85;;
62990;SDS011;49084;48.204;16.202;2023-01-15T08:22:39;9.75;;;4.72;;
62990;SDS011;49084;48.204;16.202;2023-01-15T08:25:06;6.13;;;3.85;;
62990;SDS011;49084;48.204;16.202;2023-01-15T08:27:32;8.20;;;4.47;;
62990;SDS011;49084;48.204;16.202;2023-01-15T08:29:58;8.00;;;4.65;;
62990;SDS011;49084;48.204;16.202;2023-01-15T08:32:24;5.85;;;3.50;;
62990;SDS011;49084;48.204;16.202;2023-01-15T08:34:49;6.63;;;4.10;;
62990;SDS011;49084;48.204;16.202;2023-01-15T08:37:15;8.52;;;4.57;;
62990;SDS011;49084;48.204;16.202;2023-01-15T08:39:41;7.55;;;4.00;;
62990;SDS011;49084;48.204;16.202;2023-01-15T08:42:07;6.45;;;3.60;;
62990;SDS011;49084;48.204;16.202;2023-01-15T08:44:32;7.80;;;3.92;;
62990;SDS011;49084;48.204;16.202;2023-01-15T08:46:58;8.43;;;4.13;;
62990;SDS011;49084;48.204;16.202;2023-01-15T08:49:24;5.75;;;3.83;;
62990;SDS011;49084;48.204;16.202;2023-01-15T08:51:50;6.10;;;3.53;;
62990;SDS011;49084;48.204;16.202;2023-01-15T08:54:16;6.68;;;3.88;;
62990;SDS011;49084;48.204;16.202;2023-01-15T08:56:43;5.68;;;3.50;;
62990;SDS011;49084;48.204;16.202;2023-01-15T08:59:09;9.07;;;3.97;;
62990;SDS011;49084;48.204;16.202;2023-01-15T09:01:34;7.50;;;3.83;;
62990;SDS011;49084;48.204;16.202;2023-01-15T09:04:00;6.20;;;3.60;;
62990;SDS011;49084;48.204;16.202;2023-01-15T09:06:26;9.70;;;4.03;;
62990;SDS011;49084;48.204;16.202;2023-01-15T09:08:53;4.90;;;3.22;;
62990;SDS011;49084;48.204;16.202;2023-01-15T09:11:19;7.65;;;3.72;;
62990;SDS011;49084;48.204;16.202;2023-01-15T09:13:44;5.10;;;3.60;;
62990;SDS011;49084;48.204;16.202;2023-01-15T09:16:12;5.80;;;3.47;;
62990;SDS011;49084;48.204;16.202;2023-01-15T09:18:38;6.45;;;3.80;;
62990;SDS011;49084;48.204;16.202;2023-01-15T09:21:04;7.25;;;3.70;;
62990;SDS011;49084;48.204;16.202;2023-01-15T09:23:30;6.20;;;3.63;;
62990;SDS011;49084;48.204;16.202;2023-01-15T09:26:00;7.07;;;4.13;;
62990;SDS011;49084;48.204;16.202;2023-01-15T09:28:30;7.28;;;3.80;;
62990;SDS011;49084;48.204;16.202;2023-01-15T09:30:56;7.72;;;3.53;;
62990;SDS011;49084;48.204;16.202;2023-01-15T09:33:22;5.15;;;3.08;;
62990;SDS011;49084;48.204;16.202;2023-01-15T09:35:47;5.30;;;3.22;;
62990;SDS011;49084;48.204;16.202;2023-01-15T09:38:14;5.60;;;3.67;;
62990;SDS011;49084;48.204;16.202;2023-01-15T09:57:16;6.75;;;3.67;;
62990;SDS011;49084;48.204;16.202;2023-01-15T09:59:44;6.20;;;4.35;;
62990;SDS011;49084;48.204;16.202;2023-01-15T10:02:15;6.03;;;3.78;;
62990;SDS011;49084;48.204;16.202;2023-01-15T10:04:55;6.90;;;3.75;;
62990;SDS011;49084;48.204;16.202;2023-01-15T10:07:28;7.00;;;3.95;;
62990;SDS011;49084;48.204;16.202;2023-01-15T10:10:04;7.30;;;4.00;;
62990;SDS011;49084;48.204;16.202;2023-01-15T10:12:34;5.55;;;4.07;;
62990;SDS011;49084;48.204;16.202;2023-01-15T10:17:47;9.18;;;4.00;;
62990;SDS011;49084;48.204;16.202;2023-01-15T10:23:06;9.18;;;3.90;;
62990;SDS011;49084;48.204;16.202;2023-01-15T10:25:54;6.63;;;4.32;;
62990;SDS011;49084;48.204;16.202;2023-01-15T10:29:10;7.20;;;4.03;;
62990;SDS011;49084;48.204;16.202;2023-01-15T10:31:51;6.35;;;3.72;;
62990;SDS011;49084;48.204;16.202;2023-01-15T10:36:50;8.27;;;4.13;;
62990;SDS011;49084;48.204;16.202;2023-01-15T10:39:37;9.52;;;4.55;;
62990;SDS011;49084;48.204;16.202;2023-01-15T10:47:36;6.35;;;3.92;;
62990;SDS011;49084;48.204;16.202;2023-01-15T10:50:24;8.48;;;3.88;;
62990;SDS011;49084;48.204;16.202;2023-01-15T10:52:59;8.35;;;4.47;;
62990;SDS011;49084;48.204;16.202;2023-01-15T10:55:48;7.32;;;4.85;;
62990;SDS011;49084;48.204;16.202;2023-01-15T11:00:57;8.43;;;3.92;;
62990;SDS011;49084;48.204;16.202;2023-01-15T11:03:48;5.82;;;4.63;;
62990;SDS011;49084;48.204;16.202;2023-01-15T11:06:15;6.95;;;4.20;;
62990;SDS011;49084;48.204;16.202;2023-01-15T11:08:52;5.50;;;4.13;;
62990;SDS011;49084;48.204;16.202;2023-01-15T11:11:21;5.80;;;4.13;;
62990;SDS011;49084;48.204;16.202;2023-01-15T11:14:17;8.98;;;5.28;;
62990;SDS011;49084;48.204;16.202;2023-01-15T11:17:01;5.90;;;4.18;;
62990;SDS011;49084;48.204;16.202;2023-01-15T11:19:33;7.50;;;4.30;;
62990;SDS011;49084;48.204;16.202;2023-01-15T11:22:13;8.88;;;5.07;;
62990;SDS011;49084;48.204;16.202;2023-01-15T11:24:51;9.40;;;5.63;;
62990;SDS011;49084;48.204;16.202;2023-01-15T11:27:20;7.57;;;5.25;;
62990;SDS011;49084;48.204;16.202;2023-01-15T11:29:53;7.72;;;5.30;;
62990;SDS011;49084;48.204;16.202;2023-01-15T11:32:33;9.50;;;4.88;;
62990;SDS011;49084;48.204;16.202;2023-01-15T11:37:33;9.15;;;4.65;;
62990;SDS011;49084;48.204;16.202;2023-01-15T11:40:00;7.50;;;4.60;;
62990;SDS011;49084;48.204;16.202;2023-01-15T11:42:35;9.18;;;4.65;;
62990;SDS011;49084;48.204;16.202;2023-01-15T11:45:28;8.45;;;4.03;;
62990;SDS011;49084;48.204;16.202;2023-01-15T11:48:14;8.93;;;5.70;;
62990;SDS011;49084;48.204;16.202;2023-01-15T11:51:08;8.10;;;5.63;;
62990;SDS011;49084;48.204;16.202;2023-01-15T11:53:49;7.13;;;4.05;;
62990;SDS011;49084;48.204;16.202;2023-01-15T11:56:21;7.30;;;4.28;;
62990;SDS011;49084;48.204;16.202;2023-01-15T11:58:54;6.00;;;4.18;;
62990;SDS011;49084;48.204;16.202;2023-01-15T12:01:25;7.22;;;5.30;;
62990;SDS011;49084;48.204;16.202;2023-01-15T12:04:00;7.78;;;5.00;;
62990;SDS011;49084;48.204;16.202;2023-01-15T12:06:46;9.45;;;5.20;;
62990;SDS011;49084;48.204;16.202;2023-01-15T12:09:20;8.70;;;4.38;;
62990;SDS011;49084;48.204;16.202;2023-01-15T12:20:15;14.02;;;6.00;;
62990;SDS011;49084;48.204;16.202;2023-01-15T12:25:33;10.02;;;6.00;;
62990;SDS011;49084;48.204;16.202;2023-01-15T12:28:15;12.45;;;5.38;;
62990;SDS011;49084;48.204;16.202;2023-01-15T12:38:53;10.10;;;6.18;;
62990;SDS011;49084;48.204;16.202;2023-01-15T12:41:35;14.25;;;6.47;;
62990;SDS011;49084;48.204;16.202;2023-01-15T12:44:30;7.93;;;5.53;;
62990;SDS011;49084;48.204;16.202;2023-01-15T12:47:17;7.45;;;5.28;;
62990;SDS011;49084;48.204;16.202;2023-01-15T12:49:50;10.88;;;7.00;;
62990;SDS011;49084;48.204;16.202;2023-01-15T12:52:21;11.50;;;6.38;;
62990;SDS011;49084;48.204;16.202;2023-01-15T12:55:12;8.55;;;5.80;;
62990;SDS011;49084;48.204;16.202;2023-01-15T12:57:39;9.18;;;5.85;;
62990;SDS011;49084;48.204;16.202;2023-01-15T13:05:36;13.00;;;7.13;;
62990;SDS011;49084;48.204;16.202;2023-01-15T13:08:14;9.75;;;6.68;;
62990;SDS011;49084;48.204;16.202;2023-01-15T13:11:14;11.45;;;6.93;;
62990;SDS011;49084;48.204;16.202;2023-01-15T13:13:40;14.95;;;7.43;;
62990;SDS011;49084;48.204;16.202;2023-01-15T13:21:48;12.60;;;7.65;;
62990;SDS011;49084;48.204;16.202;2023-01-15T13:32:57;11.57;;;7.57;;
62990;SDS011;49084;48.204;16.202;2023-01-15T13:35:47;12.20;;;7.82;;
62990;SDS011;49084;48.204;16.202;2023-01-15T13:38:26;13.77;;;8.18;;
62990;SDS011;49084;48.204;16.202;2023-01-15T13:40:56;11.40;;;7.35;;
62990;SDS011;49084;48.204;16.202;2023-01-15T13:43:31;11.75;;;7.35;;
62990;SDS011;49084;48.204;16.202;2023-01-15T13:46:10;11.20;;;7.13;;
62990;SDS011;49084;48.204;16.202;2023-01-15T13:48:45;14.40;;;7.68;;
62990;SDS011;49084;48.204;16.202;2023-01-15T13:54:09;16.23;;;7.38;;
62990;SDS011;49084;48.204;16.202;2023-01-15T13:56:40;13.27;;;8.50;;
62990;SDS011;49084;48.204;16.202;2023-01-15T13:59:24;13.23;;;8.18;;
62990;SDS011;49084;48.204;16.202;2023-01-15T14:02:00;12.90;;;8.73;;
62990;SDS011;49084;48.204;16.202;2023-01-15T14:04:35;11.43;;;7.82;;
62990;SDS011;49084;48.204;16.202;2023-01-15T14:07:02;11.75;;;8.18;;
62990;SDS011;49084;48.204;16.202;2023-01-15T14:09:28;13.80;;;7.65;;
62990;SDS011;49084;48.204;16.202;2023-01-15T14:14:49;14.82;;;7.80;;
62990;SDS011;49084;48.204;16.202;2023-01-15T14:23:50;16.50;;;9.32;;
62990;SDS011;49084;48.204;16.202;2023-01-15T14:26:48;19.58;;;9.75;;
62990;SDS011;49084;48.204;16.202;2023-01-15T14:31:47;14.70;;;9.70;;
62990;SDS011;49084;48.204;16.202;2023-01-15T14:34:26;23.08;;;11.90;;
62990;SDS011;49084;48.204;16.202;2023-01-15T14:42:03;20.35;;;11.27;;
62990;SDS011;49084;48.204;16.202;2023-01-15T14:44:55;17.08;;;10.85;;
62990;SDS011;49084;48.204;16.202;2023-01-15T14:47:29;19.77;;;11.50;;
62990;SDS011;49084;48.204;16.202;2023-01-15T14:50:00;20.42;;;12.30;;
62990;SDS011;49084;48.204;16.202;2023-01-15T14:52:27;19.50;;;11.75;;
62990;SDS011;49084;48.204;16.202;2023-01-15T14:54:53;19.77;;;12.00;;
62990;SDS011;49084;48.204;16.202;2023-01-15T14:57:20;21.02;;;12.63;;
62990;SDS011;49084;48.204;16.202;2023-01-15T14:59:48;25.17;;;12.18;;
62990;SDS011;49084;48.204;16.202;2023-01-15T15:02:25;16.40;;;11.30;;
62990;SDS011;49084;48.204;16.202;2023-01-15T15:05:00;20.02;;;12.80;;
62990;SDS011;49084;48.204;16.202;2023-01-15T15:07:29;21.08;;;12.00;;
62990;SDS011;49084;48.204;16.202;2023-01-15T15:10:02;20.75;;;12.00;;
62990;SDS011;49084;48.204;16.202;2023-01-15T15:12:41;24.20;;;13.20;;
62990;SDS011;49084;48.204;16.202;2023-01-15T15:15:41;25.60;;;13.63;;
62990;SDS011;49084;48.204;16.202;2023-01-15T15:21:18;27.55;;;15.43;;
62990;SDS011;49084;48.204;16.202;2023-01-15T15:24:00;20.42;;;13.50;;
62990;SDS011;49084;48.204;16.202;2023-01-15T15:26:30;23.95;;;13.77;;
62990;SDS011;49084;48.204;16.202;2023-01-15T15:31:50;25.42;;;14.65;;
62990;SDS011;49084;48.204;16.202;2023-01-15T15:36:57;30.33;;;18.33;;
62990;SDS011;49084;48.204;16.202;2023-01-15T15:39:28;25.10;;;15.63;;
62990;SDS011;49084;48.204;16.202;2023-01-15T15:42:29;23.50;;;15.10;;
62990;SDS011;49084;48.204;16.202;2023-01-15T15:45:21;17.75;;;10.60;;
62990;SDS011;49084;48.204;16.202;2023-01-15T15:48:30;11.70;;;7.60;;
62990;SDS011;49084;48.204;16.202;2023-01-15T15:51:52;12.20;;;7.53;;
62990;SDS011;49084;48.204;16.202;2023-01-15T15:59:15;8.65;;;4.22;;
62990;SDS011;49084;48.204;16.202;2023-01-15T16:01:51;3.13;;;2.83;;
62990;SDS011;49084;48.204;16.202;2023-01-15T16:04:18;2.50;;;2.30;;
62990;SDS011;49084;48.204;16.202;2023-01-15T16:06:44;2.35;;;1.60;;
62990;SDS011;49084;48.204;16.202;2023-01-15T16:09:12;2.22;;;0.88;;
62990;SDS011;49084;48.204;16.202;2023-01-15T16:11:38;1.58;;;1.10;;
62990;SDS011;49084;48.204;16.202;2023-01-15T16:14:05;1.00;;;0.93;;
62990;SDS011;49084;48.204;16.202;2023-01-15T16:16:36;1.60;;;0.60;;
62990;SDS011;49084;48.204;16.202;2023-01-15T16:19:03;1.20;;;0.90;;
62990;SDS011;49084;48.204;16.202;2023-01-15T16:21:36;1.70;;;1.00;;
62990;SDS011;49084;48.204;16.202;2023-01-15T16:24:06;1.23;;;0.68;;
62990;SDS011;49084;48.204;16.202;2023-01-15T16:26:37;2.05;;;0.50;;
62990;SDS011;49084;48.204;16.202;2023-01-15T16:29:15;1.00;;;0.70;;
62990;SDS011;49084;48.204;16.202;2023-01-15T16:31:44;2.58;;;0.88;;
62990;SDS011;49084;48.204;16.202;2023-01-15T16:34:12;0.60;;;0.60;;
62990;SDS011;49084;48.204;16.202;2023-01-15T16:36:46;1.45;;;0.63;;
62990;SDS011;49084;48.204;16.202;2023-01-15T16:41:49;1.10;;;0.52;;
62990;SDS011;49084;48.204;16.202;2023-01-15T16:47:04;0.77;;;0.65;;
62990;SDS011;49084;48.204;16.202;2023-01-15T16:49:31;1.10;;;0.50;;
62990;SDS011;49084;48.204;16.202;2023-01-15T16:51:58;1.00;;;0.70;;
62990;SDS011;49084;48.204;16.202;2023-01-15T16:54:39;0.85;;;0.52;;
62990;SDS011;49084;48.204;16.202;2023-01-15T16:57:27;0.65;;;0.60;;
62990;SDS011;49084;48.204;16.202;2023-01-15T17:02:23;2.00;;;0.70;;
62990;SDS011;49084;48.204;16.202;2023-01-15T17:04:54;0.32;;;0.30;;
62990;SDS011;49084;48.204;16.202;2023-01-15T17:09:55;0.40;;;0.40;;
62990;SDS011;49084;48.204;16.202;2023-01-15T17:12:32;1.05;;;0.70;;
62990;SDS011;49084;48.204;16.202;2023-01-15T17:17:42;0.80;;;0.30;;
62990;SDS011;49084;48.204;16.202;2023-01-15T17:20:10;1.42;;;0.45;;
62990;SDS011;49084;48.204;16.202;2023-01-15T17:22:39;1.98;;;0.70;;